• Join FlightAware (Why Join?)
  • Login
  • US Flag 
12:23AM EDT


 

Airport Tracker/Info


-or-


 

Live Flight TrackerFlight Track Log ✈ N147SW ✈ 19-Mar-2014 ✈ KPIE - KTLH

Flight Track Log - Related Links

Times and Time Zones

All times are in EDT time to prevent confusion due to time zone crossing. See the N147SW flight status page for this flight to view local times or setup timezone preferences in your user account.

Time Position Orientation Groundspeed Altitude Reporting Facility
EDT Latitude Longitude Course Direction KTS MPH feet Rate Location/Type
10:18AM 28.0000 -82.7167 344° North 256 295 3,600  Level Tampa TRACON
10:20AM 28.1331 -82.7608 344° North 249 287 10,800 2,700 Climbing Jacksonville Center
10:21AM 28.2186 -82.7253 20° North 255 293 12,400 2,700 Climbing Jacksonville Center
10:22AM 28.3022 -82.7700 335° Northwest 302 348 16,200 3,300 Climbing Jacksonville Center
10:23AM 28.3794 -82.8289 326° Northwest 308 354 19,100 1,860 Climbing Jacksonville Center
10:24AM 28.4650 -82.8903 328° Northwest 339 390 20,000 420 Climbing Jacksonville Center
10:25AM 28.5528 -82.9564 327° Northwest 375 432 20,000  Level Jacksonville Center
10:26AM 28.6550 -83.0322 327° Northwest 418 481 20,000  Level Jacksonville Center
10:27AM 28.7569 -83.1058 328° Northwest 434 499 20,000  Level Jacksonville Center
10:28AM 28.8569 -83.1819 326° Northwest 434 499 20,000  Level Jacksonville Center
10:29AM 28.9611 -83.2628 326° Northwest 439 505 20,000  Level Jacksonville Center
10:30AM 29.0653 -83.3392 327° Northwest 439 505 20,000  Level Jacksonville Center
10:31AM 29.1694 -83.4158 327° Northwest 439 505 20,000  Level Jacksonville Center
10:32AM 29.2817 -83.5019 326° Northwest 439 505 20,000  Level Jacksonville Center
10:33AM 29.3858 -83.5814 326° Northwest 444 511 20,000 -420 Level Jacksonville Center
10:34AM 29.4897 -83.6561 328° Northwest 444 511 19,200 -1,260 Descending Jacksonville Center
10:35AM 29.5956 -83.7333 328° Northwest 444 511 17,500 -1,920 Descending Jacksonville Center
10:36AM 29.6994 -83.8083 328° Northwest 444 511 15,400 -2,160 Descending Jacksonville Center
10:37AM 29.7972 -83.8786 328° Northwest 431 496 13,200 -2,220 Descending Jacksonville Center
10:38AM 29.8717 -83.9706 313° West 414 476 11,100 -1,140 Descending Jacksonville Center
10:39AM 29.9417 -84.0600 312° West 387 445 11,000 -60 Descending Jacksonville Center
10:40AM 30.0439 -84.0756 352° North 346 398 11,000 -780 Level Jacksonville Center
10:41AM 30.1442 -84.0817 357° North 354 407 9,500 -2,040 Descending Jacksonville Center
10:42AM 30.1808 -84.1614 298° West 272 313 7,000 -2,460 Descending Jacksonville Center
10:43AM 30.1842 -84.2503 273° West 256 295 4,600 -1,860 Descending Jacksonville Center
10:44AM 30.1958 -84.3225 281° West 261 300 3,300 3,120 Descending Jacksonville Center
10:45AM 30.2158 -84.4022 286° West 261 300 11,000 3,780 Climbing Jacksonville Center
10:46AM 30.2358 -84.4794 287° West 261 300 11,000  Level Jacksonville Center
10:48AM 30.3361 -84.3994 North  Level Estimated
10:55AM 30.3833 -84.3500 North  Level FlightAware Approximate